createdAt,value
2022-08-07T15:06:54.635Z,93288.31
2022-08-07T15:10:01.436Z,93286.19
2022-08-07T15:13:25.304Z,93287.84
2022-08-07T15:16:39.708Z,93289.75
2022-08-07T15:20:32.924Z,93284.28
2022-08-07T15:25:13.711Z,93281.69
2022-08-07T15:27:26.213Z,93294.97
2022-08-07T15:30:34.284Z,93301.13
2022-08-07T15:33:42.708Z,93298.75
2022-08-07T15:37:03.209Z,93299.47
2022-08-07T15:40:20.504Z,93301.13
2022-08-07T15:43:55.789Z,93298.75
2022-08-07T15:47:08.724Z,93304.19
2022-08-07T15:50:37.620Z,93293.53
2022-08-07T15:53:52.871Z,93299.47
2022-08-07T15:57:00.521Z,93296.13
2022-08-07T16:00:06.847Z,93302.28
2022-08-07T16:03:20.855Z,93298.03
2022-08-07T16:06:36.052Z,93295.91
2022-08-07T16:09:54.745Z,93294.00
2022-08-07T16:13:57.524Z,93306.13
2022-08-07T16:16:56.901Z,93305.88
2022-08-07T16:20:38.272Z,93296.63
2022-08-07T16:24:34.886Z,93305.63
2022-08-07T16:27:59.459Z,93303.97
2022-08-07T16:31:51.667Z,93300.16
2022-08-07T16:34:56.347Z,93302.94
2022-08-07T16:39:01.369Z,93294.63
2022-08-07T16:42:42.687Z,93288.25
2022-08-07T16:46:21.298Z,93290.31
2022-08-07T16:50:20.518Z,93290.06
2022-08-07T16:53:57.198Z,93289.28
2022-08-07T16:56:44.577Z,93292.38
2022-08-07T16:59:58.559Z,93291.38
2022-08-07T17:03:05.852Z,93304.13
2022-08-07T17:06:29.848Z,93293.97
2022-08-07T17:10:06.914Z,93299.19
2022-08-07T17:13:23.125Z,93300.09
2022-08-07T17:16:34.355Z,93291.34
2022-08-07T17:20:00.866Z,93296.31
2022-08-07T17:23:32.191Z,93283.75
2022-08-07T17:26:56.577Z,93287.34
2022-08-07T17:30:19.970Z,93289.47
2022-08-07T17:34:08.715Z,93288.97
2022-08-07T17:37:08.979Z,93286.44
2022-08-07T17:40:34.994Z,93282.66
2022-08-07T17:44:02.713Z,93282.66
2022-08-07T17:47:38.554Z,93283.59
2022-08-07T17:51:01.669Z,93287.81
2022-08-07T17:54:14.749Z,93295.41
2022-08-07T17:57:59.314Z,93293.00
2022-08-07T18:01:20.942Z,93300.81
2022-08-07T18:04:38.507Z,93295.38
2022-08-07T18:07:52.873Z,93301.28
2022-08-07T18:12:07.414Z,93298.44
2022-08-07T18:15:00.553Z,93294.38
2022-08-07T18:18:46.011Z,93295.75
2022-08-07T18:21:54.936Z,93300.44
2022-08-07T18:25:23.831Z,93296.41
2022-08-07T18:28:58.292Z,93305.13
2022-08-07T18:32:05.823Z,93303.84
2022-08-07T18:35:52.082Z,93298.31
2022-08-07T18:40:05.837Z,93296.34
2022-08-07T18:43:01.254Z,93304.34
2022-08-07T18:46:26.009Z,93295.56
2022-08-07T18:50:39.128Z,93300.84
2022-08-07T18:53:48.681Z,93289.22
2022-08-07T18:57:30.751Z,93301.50
2022-08-07T19:00:42.709Z,93288.38
2022-08-07T19:04:09.816Z,93300.31
2022-08-07T19:07:34.358Z,93289.22
2022-08-07T19:11:00.120Z,93293.03
2022-08-07T19:14:37.314Z,93289.53
2022-08-07T19:18:01.140Z,93291.19
2022-08-07T19:21:47.524Z,93286.25
2022-08-07T19:24:51.229Z,93293.34
2022-08-07T19:30:54.566Z,93297.06
2022-08-07T19:31:59.835Z,93287.88
2022-08-07T19:35:02.365Z,93297.31
2022-08-07T19:38:15.736Z,93302.94
2022-08-07T19:41:45.026Z,93311.69
2022-08-07T19:44:49.898Z,93297.72
2022-08-07T19:47:56.525Z,93305.78
2022-08-07T19:51:04.076Z,93289.66
2022-08-07T19:54:34.445Z,93296.41
2022-08-07T19:58:13.531Z,93292.38
2022-08-07T20:01:19.237Z,93295.47
2022-08-07T20:04:31.820Z,93295.06
2022-08-07T20:07:47.636Z,93288.94
2022-08-07T20:10:57.288Z,93287.31
2022-08-07T20:14:20.611Z,93294.38
2022-08-07T20:17:27.686Z,93296.28
2022-08-07T20:20:34.063Z,93294.84
2022-08-07T20:23:49.547Z,93292.72
2022-08-07T20:27:00.334Z,93292.25
2022-08-07T20:30:07.754Z,93308.78
2022-08-07T20:33:36.296Z,93300.75
2022-08-07T20:36:43.142Z,93306.66
2022-08-07T20:40:03.600Z,93304.06
2022-08-07T20:43:16.962Z,93299.41
2022-08-07T20:46:34.572Z,93300.75
2022-08-07T20:49:59.098Z,93301.50
2022-08-07T20:53:06.463Z,93306.41
2022-08-07T20:56:11.048Z,93304.63
2022-08-07T21:00:05.203Z,93311.66
2022-08-07T21:02:59.170Z,93307.88
2022-08-07T21:06:21.837Z,93308.09
2022-08-07T21:09:51.925Z,93317.22
2022-08-07T21:13:04.006Z,93306.78
2022-08-07T21:16:09.754Z,93308.41
2022-08-07T21:19:15.639Z,93311.00
2022-08-07T21:22:28.234Z,93303.22
2022-08-07T21:25:56.877Z,93307.69
2022-08-07T21:29:15.556Z,93304.84
2022-08-07T21:32:47.840Z,93313.09
2022-08-07T21:36:11.654Z,93319.31
2022-08-07T21:39:46.279Z,93315.78
2022-08-07T21:43:10.631Z,93320.00
2022-08-07T21:46:31.655Z,93320.22
2022-08-07T21:50:02.674Z,93322.09
2022-08-07T21:53:13.475Z,93318.66
2022-08-07T21:56:36.394Z,93324.56
2022-08-07T22:00:05.774Z,93321.06
2022-08-07T22:03:31.369Z,93324.25
2022-08-07T22:06:56.004Z,93333.53
2022-08-07T22:10:03.617Z,93327.88
2022-08-07T22:13:13.719Z,93322.63
2022-08-07T22:16:44.940Z,93324.34
2022-08-07T22:20:07.104Z,93318.25
2022-08-07T22:23:45.934Z,93316.81
2022-08-07T22:27:04.176Z,93317.81
2022-08-07T22:30:17.440Z,93318.97
2022-08-07T22:33:52.654Z,93313.56
2022-08-07T22:37:13.741Z,93324.56
2022-08-07T22:40:40.951Z,93326.84
2022-08-07T22:43:57.967Z,93331.31
2022-08-07T22:47:26.516Z,93337.97
